Time;durP1;ratioP1;P1;durP2;ratioP2;P2;SDS_P1;SDS_P2;PMS_P1;PMS_P2;Temp;Humidity;BMP_temperature;BMP_pressure;BME280_temperature;BME280_humidity;BME280_pressure;Samples;Min_cycle;Max_cycle;Signal;HPM_P1;HPM_P2
2022/07/08 00:00:34;;;;;;;4.45;1.38;;;;;;;22.64;55.06;100489.50;4995710;28;20467;-81
2022/07/08 00:02:59;;;;;;;6.95;1.20;;;;;;;22.76;54.48;100489.75;4994488;28;20026;-80
2022/07/08 00:05:25;;;;;;;6.35;1.20;;;;;;;22.62;54.53;100483.38;4995534;28;20106;-80
2022/07/08 00:07:50;;;;;;;4.85;1.33;;;;;;;22.61;54.56;100475.34;4995430;28;20054;-80
2022/07/08 00:10:16;;;;;;;1.88;1.25;;;;;;;22.59;54.71;100478.31;4996267;28;20531;-80
2022/07/08 00:12:42;;;;;;;3.70;1.40;;;;;;;22.60;54.71;100488.22;4997982;28;20034;-80
2022/07/08 00:15:09;;;;;;;4.75;1.30;;;;;;;22.57;54.67;100487.75;4995244;28;20026;-80
2022/07/08 00:17:35;;;;;;;1.90;1.05;;;;;;;22.51;55.00;100475.72;4994306;28;20097;-80
2022/07/08 00:20:00;;;;;;;6.35;1.25;;;;;;;22.47;54.91;100466.25;4995076;28;20109;-79
2022/07/08 00:22:26;;;;;;;1.83;1.27;;;;;;;22.44;55.00;100477.63;4994815;28;20030;-79
2022/07/08 00:24:52;;;;;;;9.00;1.65;;;;;;;22.39;55.22;100477.38;4995096;28;20045;-80
2022/07/08 00:27:18;;;;;;;8.18;1.85;;;;;;;22.30;55.48;100478.59;4994390;28;20042;-79
2022/07/08 00:29:44;;;;;;;4.18;1.25;;;;;;;22.21;55.63;100464.25;4994957;28;20489;-81
2022/07/08 00:32:09;;;;;;;6.97;1.50;;;;;;;22.24;55.56;100465.72;4994757;28;20104;-79
2022/07/08 00:34:35;;;;;;;4.38;1.30;;;;;;;22.24;55.65;100457.50;4994322;28;20045;-80
2022/07/08 00:37:00;;;;;;;1.75;0.93;;;;;;;22.24;55.65;100473.94;4994151;28;20041;-80
2022/07/08 00:39:26;;;;;;;3.65;1.40;;;;;;;22.22;55.52;100465.09;4992989;28;20638;-81
2022/07/08 00:41:52;;;;;;;2.13;1.25;;;;;;;22.20;55.69;100468.03;4994115;28;20034;-80
2022/07/08 00:44:17;;;;;;;3.08;1.20;;;;;;;22.22;55.60;100465.09;4994702;28;20042;-78
2022/07/08 00:46:43;;;;;;;9.68;1.77;;;;;;;22.23;55.60;100475.03;4995717;28;20109;-80
2022/07/08 00:49:08;;;;;;;5.65;1.38;;;;;;;22.17;55.90;100473.06;4995912;28;20113;-79
2022/07/08 00:51:34;;;;;;;6.03;1.20;;;;;;;22.12;56.00;100472.84;4997514;28;20026;-80
2022/07/08 00:54:00;;;;;;;6.38;1.42;;;;;;;22.09;56.22;100471.34;4995600;28;20128;-80
2022/07/08 00:56:27;;;;;;;1.73;1.10;;;;;;;22.10;56.28;100473.06;4995044;28;20493;-80
2022/07/08 00:58:53;;;;;;;2.75;1.30;;;;;;;22.05;56.39;100464.59;4995116;28;20114;-80
2022/07/08 01:01:20;;;;;;;6.00;1.85;;;;;;;22.05;56.54;100464.59;4994263;28;20404;-81
2022/07/08 01:03:46;;;;;;;4.78;1.73;;;;;;;22.12;56.53;100461.88;4994967;28;20033;-80
2022/07/08 01:06:13;;;;;;;1.67;1.42;;;;;;;22.09;56.60;100460.41;4994121;28;20058;-80
2022/07/08 01:08:39;;;;;;;5.07;1.75;;;;;;;22.13;56.75;100452.63;4993930;28;20035;-80
2022/07/08 01:11:07;;;;;;;2.47;1.27;;;;;;;22.15;56.88;100447.78;4993718;28;20439;-80
2022/07/08 01:13:33;;;;;;;5.10;1.65;;;;;;;22.19;57.28;100452.66;4993973;28;20408;-80
2022/07/08 01:15:58;;;;;;;2.67;1.73;;;;;;;22.14;57.67;100457.03;4994217;28;20030;-81
2022/07/08 01:18:29;;;;;;;3.28;1.73;;;;;;;22.13;57.80;100455.38;4994479;28;20469;-80
2022/07/08 01:20:55;;;;;;;9.02;2.67;;;;;;;22.02;58.12;100431.28;5000327;28;20109;-80
2022/07/08 01:23:21;;;;;;;3.83;1.63;;;;;;;22.11;58.12;100454.69;5010491;28;20456;-80
2022/07/08 01:25:47;;;;;;;2.03;1.60;;;;;;;22.13;58.53;100452.63;4994394;28;20109;-80
2022/07/08 01:28:14;;;;;;;9.07;1.65;;;;;;;22.10;58.56;100455.78;4975815;28;20041;-80
2022/07/08 01:30:40;;;;;;;3.28;1.58;;;;;;;22.08;58.74;100452.38;4976027;28;20031;-81
2022/07/08 01:33:06;;;;;;;5.22;2.00;;;;;;;22.10;58.55;100450.28;4993279;28;20085;-80
2022/07/08 01:35:32;;;;;;;2.70;2.30;;;;;;;22.15;58.81;100458.72;4993433;28;20034;-80
2022/07/08 01:37:57;;;;;;;7.45;2.10;;;;;;;22.10;59.09;100459.34;4993603;28;20108;-81
2022/07/08 01:40:23;;;;;;;3.92;2.15;;;;;;;22.02;58.98;100437.59;4993574;28;20026;-81
2022/07/08 01:42:48;;;;;;;7.78;1.70;;;;;;;22.15;59.00;100451.38;4992943;28;20543;-80
2022/07/08 01:45:14;;;;;;;8.98;1.88;;;;;;;21.98;59.31;100441.81;4993265;28;20449;-80
2022/07/08 01:47:39;;;;;;;8.93;2.17;;;;;;;22.17;59.13;100448.41;4993105;28;20408;-80
2022/07/08 01:50:05;;;;;;;4.30;1.63;;;;;;;22.14;59.28;100454.28;4993173;28;20053;-80
2022/07/08 01:52:31;;;;;;;6.47;1.80;;;;;;;22.20;59.30;100448.84;4993013;28;20089;-80
2022/07/08 01:54:56;;;;;;;5.55;1.80;;;;;;;22.16;59.26;100441.25;4993173;28;20113;-80
2022/07/08 01:57:22;;;;;;;3.08;1.75;;;;;;;22.18;59.20;100448.22;4992882;28;20041;-79
2022/07/08 01:59:49;;;;;;;7.63;2.25;;;;;;;22.19;59.15;100449.06;4992957;28;20038;-79
2022/07/08 02:02:17;;;;;;;4.78;2.22;;;;;;;21.98;59.65;100438.22;4993083;28;20392;-80
2022/07/08 02:04:43;;;;;;;6.85;1.80;;;;;;;21.88;59.62;100421.28;4993184;28;20037;-79
2022/07/08 02:07:09;;;;;;;3.40;2.05;;;;;;;21.92;59.54;100423.47;4992681;28;20022;-81
2022/07/08 02:09:35;;;;;;;6.03;1.88;;;;;;;22.02;59.67;100448.56;4993041;28;20484;-82
2022/07/08 02:12:21;;;;;;;4.18;1.90;;;;;;;22.03;59.48;100449.41;4992466;28;20164;-80
2022/07/08 02:14:51;;;;;;;4.43;1.63;;;;;;;22.02;59.54;100447.69;4992741;28;20452;-81
2022/07/08 02:17:18;;;;;;;4.13;1.75;;;;;;;22.00;59.56;100453.41;4993594;28;20117;-80
2022/07/08 02:19:44;;;;;;;3.88;2.03;;;;;;;21.91;59.80;100446.41;4995348;28;20045;-80
2022/07/08 02:22:11;;;;;;;4.75;2.28;;;;;;;21.92;60.02;100452.72;4996693;28;20484;-81
2022/07/08 02:24:37;;;;;;;5.93;2.25;;;;;;;21.90;60.28;100477.56;4996249;28;20481;-81
2022/07/08 02:27:03;;;;;;;6.38;2.53;;;;;;;21.97;60.09;100463.91;4993183;28;20030;-81
2022/07/08 02:29:29;;;;;;;7.70;2.22;;;;;;;22.01;59.96;100466.06;4992947;28;20034;-81
2022/07/08 02:31:55;;;;;;;3.90;2.25;;;;;;;22.10;59.69;100472.19;4993084;28;20499;-82
2022/07/08 02:34:20;;;;;;;4.82;1.63;;;;;;;22.04;59.70;100465.66;4992963;28;20084;-82
2022/07/08 02:36:46;;;;;;;10.75;2.53;;;;;;;22.03;59.85;100471.31;4992784;28;20113;-82
2022/07/08 02:39:14;;;;;;;7.10;2.00;;;;;;;22.04;59.89;100462.06;4992639;28;20107;-80
2022/07/08 02:41:41;;;;;;;4.25;1.95;;;;;;;22.09;59.84;100470.50;4996846;28;20054;-80
2022/07/08 02:44:07;;;;;;;2.75;2.00;;;;;;;21.96;60.08;100454.00;4997039;28;20109;-80
2022/07/08 02:46:33;;;;;;;12.23;2.40;;;;;;;22.05;59.84;100469.22;4996599;28;20065;-81
2022/07/08 02:48:59;;;;;;;5.22;2.13;;;;;;;22.04;59.62;100462.06;4997367;28;20139;-80
2022/07/08 02:51:24;;;;;;;4.18;2.22;;;;;;;22.07;59.67;100461.66;4997237;28;20080;-81
2022/07/08 02:53:50;;;;;;;4.90;2.08;;;;;;;21.94;60.00;100467.06;4998644;28;20066;-80
2022/07/08 02:56:15;;;;;;;8.63;2.38;;;;;;;22.09;60.02;100475.97;4996979;28;20037;-80
2022/07/08 02:58:41;;;;;;;5.53;2.47;;;;;;;22.14;59.66;100473.47;4999991;28;20022;-80
2022/07/08 03:01:07;;;;;;;7.13;2.05;;;;;;;22.18;59.57;100485.72;5013759;28;20030;-80
2022/07/08 03:03:32;;;;;;;6.88;2.50;;;;;;;22.14;59.42;100474.31;5001033;28;20451;-81
2022/07/08 03:05:58;;;;;;;4.72;1.73;;;;;;;22.28;59.57;100486.19;4997815;28;20034;-80
2022/07/08 03:08:23;;;;;;;7.70;2.30;;;;;;;22.33;59.05;100483.69;4996495;28;20080;-80
2022/07/08 03:10:49;;;;;;;10.23;2.20;;;;;;;22.28;59.24;100480.72;4996408;28;20031;-80
2022/07/08 03:13:15;;;;;;;3.05;1.98;;;;;;;22.31;59.09;100480.31;4996398;28;20065;-80
2022/07/08 03:15:40;;;;;;;9.77;2.45;;;;;;;22.29;59.04;100487.91;4996357;28;20026;-80
2022/07/08 03:18:06;;;;;;;8.55;2.40;;;;;;;22.37;58.97;100489.59;4995700;28;20030;-80
2022/07/08 03:20:32;;;;;;;5.95;3.50;;;;;;;22.43;58.64;100495.13;4995797;28;20037;-80
2022/07/08 03:22:57;;;;;;;4.47;2.40;;;;;;;22.51;58.28;100492.19;4996120;28;20157;-80
2022/07/08 03:25:23;;;;;;;8.40;2.58;;;;;;;22.50;58.53;100504.22;4995798;28;20465;-80
2022/07/08 03:27:48;;;;;;;3.78;1.95;;;;;;;22.51;58.42;100497.66;4996035;28;20448;-80
2022/07/08 03:30:14;;;;;;;2.90;1.80;;;;;;;22.44;58.28;100480.38;4995826;28;20396;-80
2022/07/08 03:32:40;;;;;;;2.65;1.73;;;;;;;22.47;58.62;100501.88;4995350;28;20040;-80
2022/07/08 03:35:07;;;;;;;7.38;2.25;;;;;;;22.54;58.21;100505.47;4995148;28;20038;-79
2022/07/08 03:37:33;;;;;;;4.45;2.17;;;;;;;22.50;58.24;100496.00;4995054;28;20022;-79
2022/07/08 03:41:19;;;;;;;6.70;2.75;;;;;;;22.56;58.24;100503.41;4995215;28;20054;-80
2022/07/08 03:42:44;;;;;;;5.13;1.95;;;;;;;22.60;58.46;100501.91;4995204;28;20117;-80
2022/07/08 03:45:10;;;;;;;5.20;2.00;;;;;;;22.62;58.14;100510.81;4995210;28;20476;-79
2022/07/08 03:47:35;;;;;;;3.25;1.80;;;;;;;22.61;58.26;100503.63;4994736;28;20114;-79
2022/07/08 03:50:01;;;;;;;7.78;1.60;;;;;;;22.70;57.83;100516.13;4995257;28;20026;-79
2022/07/08 03:52:26;;;;;;;3.08;2.17;;;;;;;22.70;57.72;100524.34;4995985;28;20037;-78
2022/07/08 03:54:51;;;;;;;6.60;2.42;;;;;;;22.74;57.83;100520.16;4996606;28;20076;-81
2022/07/08 03:57:17;;;;;;;12.10;2.40;;;;;;;22.75;57.79;100526.50;4996671;28;20409;-80
2022/07/08 03:59:42;;;;;;;8.77;3.17;;;;;;;22.74;57.86;100525.63;4995452;28;20451;-81
2022/07/08 04:02:08;;;;;;;4.50;2.15;;;;;;;22.73;57.85;100534.06;4995097;28;20034;-79
2022/07/08 04:04:34;;;;;;;12.20;2.03;;;;;;;22.64;57.90;100516.06;4995065;28;20034;-81
2022/07/08 04:06:59;;;;;;;5.00;2.00;;;;;;;22.61;58.13;100520.06;4994846;28;20038;-81
2022/07/08 04:09:24;;;;;;;7.88;2.50;;;;;;;22.61;58.01;100520.06;4994476;28;20029;-81
2022/07/08 04:11:50;;;;;;;7.43;2.88;;;;;;;22.54;58.28;100529.28;4994355;28;20580;-81
2022/07/08 04:14:15;;;;;;;5.13;2.25;;;;;;;22.62;58.17;100520.91;4994088;28;20022;-80
2022/07/08 04:16:41;;;;;;;4.53;2.03;;;;;;;22.57;58.19;100517.91;4994348;28;20031;-79
2022/07/08 04:19:06;;;;;;;6.97;2.20;;;;;;;22.68;57.90;100531.09;4994261;28;20034;-80
2022/07/08 04:21:32;;;;;;;4.93;2.53;;;;;;;22.69;58.00;100528.13;4993609;28;20495;-79
2022/07/08 04:23:59;;;;;;;11.75;2.42;;;;;;;22.70;57.69;100529.81;4993958;28;20356;-79
2022/07/08 04:26:31;;;;;;;3.67;2.65;;;;;;;22.67;57.82;100521.16;4994042;28;20030;-80
2022/07/08 04:28:56;;;;;;;6.03;2.20;;;;;;;22.68;57.79;100526.47;4994509;28;20022;-81
2022/07/08 04:31:22;;;;;;;15.15;3.03;;;;;;;22.59;57.88;100505.72;4994909;28;20096;-80
2022/07/08 04:33:47;;;;;;;8.65;3.30;;;;;;;22.66;58.02;100527.69;4994836;28;20031;-81
2022/07/08 04:36:12;;;;;;;2.40;2.08;;;;;;;22.75;57.90;100532.78;5001646;28;20030;-81
2022/07/08 04:38:38;;;;;;;6.30;2.50;;;;;;;22.82;57.62;100535.56;5012560;28;20036;-87
2022/07/08 04:41:04;;;;;;;22.50;3.65;;;;;;;22.89;57.60;100532.84;4995082;28;20036;-85
2022/07/08 04:43:29;;;;;;;6.70;2.65;;;;;;;22.81;58.18;100520.19;4994469;28;20045;-85
2022/07/08 04:45:55;;;;;;;8.32;2.65;;;;;;;22.95;58.18;100532.84;4994193;28;20030;-81
2022/07/08 04:48:20;;;;;;;3.22;2.47;;;;;;;23.07;57.44;100536.69;4994479;28;20050;-83
2022/07/08 04:50:46;;;;;;;9.45;2.55;;;;;;;23.09;57.56;100530.97;4994915;28;20469;-86
2022/07/08 04:53:11;;;;;;;9.88;3.15;;;;;;;23.12;57.40;100533.28;4994175;28;20113;-83
2022/07/08 04:55:37;;;;;;;7.90;2.50;;;;;;;23.24;57.05;100534.38;4994570;28;20034;-82
2022/07/08 04:58:03;;;;;;;5.05;2.38;;;;;;;23.28;56.94;100530.16;4995285;28;20037;-85
2022/07/08 05:00:32;;;;;;;6.93;2.70;;;;;;;23.29;57.13;100523.63;4995274;28;20440;-88
2022/07/08 05:02:58;;;;;;;5.85;2.88;;;;;;;23.39;56.89;100537.81;4993033;28;20023;-76
2022/07/08 05:05:26;;;;;;;5.82;2.55;;;;;;;23.40;56.51;100542.25;4993154;28;20069;-81
2022/07/08 05:07:52;;;;;;;9.20;3.10;;;;;;;23.50;56.57;100542.69;4992791;28;20101;-78
2022/07/08 05:10:20;;;;;;;6.85;2.40;;;;;;;23.49;56.77;100543.72;4993065;28;20015;-80
2022/07/08 05:12:46;;;;;;;4.03;2.30;;;;;;;23.56;56.48;100530.00;4992907;28;20491;-79
2022/07/08 05:15:12;;;;;;;7.78;2.15;;;;;;;23.56;56.42;100530.00;4993001;28;20026;-79
2022/07/08 05:17:40;;;;;;;5.88;2.78;;;;;;;23.53;56.43;100528.53;4992400;28;20452;-76
2022/07/08 05:20:08;;;;;;;6.80;2.47;;;;;;;23.64;56.66;100535.28;4995141;28;20515;-76
2022/07/08 05:22:34;;;;;;;13.20;3.38;;;;;;;23.71;56.21;100536.13;4992510;28;20481;-76
2022/07/08 05:25:00;;;;;;;5.70;2.72;;;;;;;23.65;56.25;100537.81;4992572;28;20038;-76
2022/07/08 05:27:28;;;;;;;4.07;2.22;;;;;;;23.72;56.90;100541.41;4992761;28;20133;-77
2022/07/08 05:29:53;;;;;;;3.83;2.63;;;;;;;23.65;56.80;100539.72;4992224;28;20052;-77
2022/07/08 05:32:19;;;;;;;4.40;2.13;;;;;;;23.76;56.44;100537.16;4992002;28;20061;-77
2022/07/08 05:34:47;;;;;;;17.20;2.47;;;;;;;23.76;56.68;100531.66;4992024;28;20029;-77
2022/07/08 05:37:13;;;;;;;10.48;2.83;;;;;;;23.90;56.01;100549.00;4992254;28;20033;-76
2022/07/08 05:39:39;;;;;;;6.47;2.15;;;;;;;23.83;56.19;100540.75;4992158;28;20388;-76
2022/07/08 05:42:07;;;;;;;5.70;2.10;;;;;;;23.92;55.74;100540.53;4991984;28;20026;-76
2022/07/08 05:44:32;;;;;;;4.78;2.42;;;;;;;23.77;56.06;100541.63;4974250;28;20053;-76
2022/07/08 05:46:58;;;;;;;13.98;2.90;;;;;;;23.81;56.26;100545.63;4992124;28;20030;-76
2022/07/08 05:49:23;;;;;;;11.73;2.60;;;;;;;23.71;56.23;100530.63;4992089;28;20064;-75
2022/07/08 05:51:49;;;;;;;11.15;2.42;;;;;;;23.88;56.14;100539.28;4992561;28;20022;-76
2022/07/08 05:54:14;;;;;;;8.85;3.00;;;;;;;23.97;55.97;100538.84;4994227;28;20045;-76
2022/07/08 05:56:40;;;;;;;7.07;2.30;;;;;;;24.01;56.02;100534.59;4993181;28;20026;-78
2022/07/08 05:59:05;;;;;;;3.25;2.60;;;;;;;24.06;55.85;100525.72;4992279;28;20058;-78
2022/07/08 06:01:30;;;;;;;7.28;2.33;;;;;;;24.20;55.75;100544.75;4992091;28;20022;-77
2022/07/08 06:03:56;;;;;;;23.35;3.40;;;;;;;24.25;55.65;100541.34;4992430;28;20026;-79
2022/07/08 06:06:22;;;;;;;12.50;3.28;;;;;;;24.34;55.81;100548.31;4975202;28;20084;-77
2022/07/08 06:08:48;;;;;;;7.35;2.50;;;;;;;24.33;55.46;100538.38;4992495;28;20018;-80
2022/07/08 06:11:14;;;;;;;7.32;3.10;;;;;;;24.37;55.70;100551.44;4992680;28;20109;-79
2022/07/08 06:13:39;;;;;;;13.75;3.20;;;;;;;24.25;55.86;100555.06;4991960;28;20057;-82
2022/07/08 06:16:05;;;;;;;7.72;2.25;;;;;;;24.23;56.23;100569.06;5010296;28;20018;-83
2022/07/08 06:18:31;;;;;;;2.80;2.10;;;;;;;24.44;55.75;100570.69;4999132;28;20381;-83
2022/07/08 06:20:56;;;;;;;9.48;3.28;;;;;;;24.46;55.37;100571.31;4993454;28;20023;-86
2022/07/08 06:23:22;;;;;;;8.43;2.60;;;;;;;24.43;54.75;100560.75;4991884;28;20503;-84
2022/07/08 06:25:48;;;;;;;7.72;1.95;;;;;;;24.31;54.82;100566.06;4993749;28;20503;-84
2022/07/08 06:28:14;;;;;;;9.57;2.03;;;;;;;24.27;55.01;100567.56;4993200;28;20477;-84
2022/07/08 06:30:39;;;;;;;10.80;2.35;;;;;;;24.24;55.32;100558.91;4993256;28;20015;-84
2022/07/08 06:33:05;;;;;;;13.35;2.83;;;;;;;24.41;55.35;100564.75;4993488;28;20022;-84
2022/07/08 06:35:32;;;;;;;4.88;2.70;;;;;;;24.51;54.86;100563.25;4991978;28;20089;-85
2022/07/08 06:37:57;;;;;;;10.07;3.15;;;;;;;24.56;54.54;100568.94;4993389;28;20022;-84
2022/07/08 06:40:23;;;;;;;9.55;2.20;;;;;;;24.68;54.20;100574.59;4992272;28;20027;-83
2022/07/08 06:42:49;;;;;;;5.88;2.40;;;;;;;24.55;54.28;100553.53;4993335;28;20087;-82
2022/07/08 06:45:15;;;;;;;12.93;2.72;;;;;;;24.71;54.29;100563.16;4992685;28;20025;-84
2022/07/08 06:47:41;;;;;;;9.48;2.90;;;;;;;24.79;54.81;100566.53;4991991;28;20022;-81
2022/07/08 06:50:06;;;;;;;8.05;2.15;;;;;;;24.87;53.99;100562.72;4992040;28;20045;-81
2022/07/08 06:52:33;;;;;;;11.82;2.53;;;;;;;24.81;54.02;100547.94;4991894;28;20026;-79
2022/07/08 06:54:59;;;;;;;9.00;2.72;;;;;;;25.00;53.74;100561.81;4993520;28;20057;-80
2022/07/08 06:57:25;;;;;;;10.23;3.05;;;;;;;25.06;53.73;100566.41;5001717;28;20093;-84
2022/07/08 06:59:51;;;;;;;6.85;2.22;;;;;;;25.05;53.32;100542.72;5002260;28;20069;-84
2022/07/08 07:02:17;;;;;;;4.25;2.40;;;;;;;25.05;53.48;100539.94;4996255;28;20053;-75
2022/07/08 07:04:43;;;;;;;13.73;2.80;;;;;;;25.13;53.40;100551.56;4992562;28;20120;-81
2022/07/08 07:07:09;;;;;;;14.30;6.60;;;;;;;25.15;53.76;100545.81;4991180;28;20038;-77
2022/07/08 07:09:35;;;;;;;6.63;2.55;;;;;;;25.15;54.11;100554.94;4990871;28;20416;-76
2022/07/08 07:12:01;;;;;;;3.03;2.33;;;;;;;25.21;53.76;100548.53;4991145;28;20069;-77
2022/07/08 07:14:27;;;;;;;10.18;2.28;;;;;;;25.24;53.46;100558.25;4991281;28;20106;-76
2022/07/08 07:16:52;;;;;;;9.20;2.47;;;;;;;25.35;53.18;100557.56;4991146;28;20030;-76
2022/07/08 07:19:18;;;;;;;6.15;2.28;;;;;;;25.38;52.83;100544.16;4990923;28;20041;-77
2022/07/08 07:21:44;;;;;;;12.32;2.92;;;;;;;25.48;52.72;100538.16;4991197;28;20038;-76
2022/07/08 07:24:09;;;;;;;7.47;2.60;;;;;;;25.66;52.47;100552.03;4990902;28;20475;-77
2022/07/08 07:26:36;;;;;;;20.30;3.67;;;;;;;25.80;52.23;100544.50;4975733;28;20026;-77
2022/07/08 07:29:03;;;;;;;4.95;2.25;;;;;;;25.93;51.83;100542.47;4993513;28;20066;-77
2022/07/08 07:31:28;;;;;;;17.33;4.93;;;;;;;26.08;51.77;100544.88;4993386;28;20038;-77
2022/07/08 07:33:54;;;;;;;11.30;2.35;;;;;;;26.08;51.34;100538.53;4992919;28;20353;-77
2022/07/08 07:36:19;;;;;;;10.07;3.10;;;;;;;26.24;51.29;100543.44;4992777;28;20022;-76
2022/07/08 07:38:45;;;;;;;11.02;2.40;;;;;;;26.23;50.95;100539.03;4992741;28;20022;-76
2022/07/08 07:41:10;;;;;;;7.72;2.28;;;;;;;26.30;51.14;100537.00;4992684;28;20026;-76
2022/07/08 07:43:36;;;;;;;9.52;2.45;;;;;;;26.37;50.72;100537.78;4993409;28;20034;-76
2022/07/08 07:46:02;;;;;;;8.73;3.50;;;;;;;26.47;50.74;100538.09;4993041;28;20026;-76
2022/07/08 07:48:27;;;;;;;23.30;3.38;;;;;;;26.65;50.45;100535.31;4993283;28;20022;-76
2022/07/08 07:50:53;;;;;;;8.30;4.13;;;;;;;26.74;50.29;100538.59;4994090;28;20479;-76
2022/07/08 07:53:19;;;;;;;8.73;2.45;;;;;;;26.84;50.21;100517.69;4999155;28;20077;-77
2022/07/08 07:55:44;;;;;;;3.63;2.00;;;;;;;27.04;50.18;100526.53;4997747;28;20492;-77
2022/07/08 07:58:09;;;;;;;4.95;2.58;;;;;;;27.18;49.34;100534.63;4994805;28;20030;-76
2022/07/08 08:00:35;;;;;;;8.70;2.95;;;;;;;27.35;49.43;100532.88;4994670;28;20523;-76
2022/07/08 08:03:00;;;;;;;4.47;2.05;;;;;;;27.50;48.74;100539.66;4976299;28;20380;-75
2022/07/08 08:05:26;;;;;;;9.30;2.33;;;;;;;27.63;48.93;100532.22;4994008;28;20030;-76
2022/07/08 08:07:51;;;;;;;12.80;3.10;;;;;;;27.71;49.02;100541.00;4976284;28;20022;-76
2022/07/08 08:10:17;;;;;;;13.43;2.78;;;;;;;27.77;48.73;100544.72;4993840;28;20022;-78
2022/07/08 08:12:42;;;;;;;6.70;2.22;;;;;;;27.69;48.37;100521.06;4992655;28;20041;-77
2022/07/08 08:15:08;;;;;;;12.55;3.13;;;;;;;27.83;48.61;100538.25;4993891;28;20034;-77
2022/07/08 08:17:38;;;;;;;9.90;2.58;;;;;;;28.02;48.25;100535.13;4993987;28;20528;-77
2022/07/08 08:20:05;;;;;;;8.88;2.35;;;;;;;27.87;48.33;100534.78;4994347;28;20037;-77
2022/07/08 08:22:31;;;;;;;12.00;3.38;;;;;;;27.94;48.64;100535.50;4994039;28;20025;-76
2022/07/08 08:24:57;;;;;;;14.23;3.00;;;;;;;27.95;48.71;100530.81;4992494;28;20023;-76
2022/07/08 08:27:22;;;;;;;10.07;2.70;;;;;;;28.06;48.11;100528.06;4993797;28;20032;-76
2022/07/08 08:29:48;;;;;;;8.75;2.78;;;;;;;28.15;47.96;100527.69;4993893;28;20086;-77
2022/07/08 08:32:13;;;;;;;12.65;3.85;;;;;;;28.18;47.87;100529.97;4994083;28;20153;-77
2022/07/08 08:34:39;;;;;;;35.35;3.33;;;;;;;28.16;47.43;100526.63;4993683;28;20030;-77
2022/07/08 08:37:04;;;;;;;8.50;2.60;;;;;;;28.16;47.43;100526.63;4992367;28;20050;-77
2022/07/08 08:39:29;;;;;;;5.15;2.72;;;;;;;28.18;47.56;100524.44;4993746;28;20049;-77
2022/07/08 08:41:55;;;;;;;7.78;3.47;;;;;;;28.06;47.65;100528.06;4994104;28;20122;-77
2022/07/08 08:44:21;;;;;;;42.25;5.25;;;;;;;28.12;47.57;100530.94;4994858;28;20061;-78
2022/07/08 08:46:46;;;;;;;11.57;2.72;;;;;;;28.10;47.84;100518.19;4996028;28;20137;-78
2022/07/08 08:49:16;;;;;;;21.20;2.75;;;;;;;28.32;47.65;100521.16;4997156;28;20036;-77
2022/07/08 08:51:44;;;;;;;10.70;2.78;;;;;;;28.41;47.85;100521.63;4993788;28;20019;-78
2022/07/08 08:54:13;;;;;;;12.27;2.47;;;;;;;28.41;47.38;100529.94;4993895;28;20051;-77
2022/07/08 08:56:39;;;;;;;10.07;3.15;;;;;;;28.39;47.50;100526.56;4993600;28;20046;-77
2022/07/08 08:59:05;;;;;;;9.43;2.83;;;;;;;28.32;47.28;100531.38;4993586;28;20026;-77
2022/07/08 09:01:32;;;;;;;9.35;2.80;;;;;;;28.30;46.61;100509.53;4993758;28;20026;-77
2022/07/08 09:03:59;;;;;;;3.95;2.38;;;;;;;28.18;47.40;100505.09;4993431;28;20030;-77
2022/07/08 09:06:24;;;;;;;4.93;2.35;;;;;;;28.27;47.12;100512.78;4993666;28;20036;-77
2022/07/08 09:08:50;;;;;;;9.63;2.90;;;;;;;28.21;47.57;100513.75;4993524;28;20018;-78
2022/07/08 09:11:17;;;;;;;30.83;3.90;;;;;;;28.21;47.81;100499.91;4993176;28;20100;-76
2022/07/08 09:13:43;;;;;;;10.45;4.80;;;;;;;28.34;47.97;100507.09;4993914;28;20030;-78
2022/07/08 09:16:09;;;;;;;14.07;3.60;;;;;;;28.46;47.35;100497.69;4993827;28;20026;-78
2022/07/08 09:18:36;;;;;;;25.60;8.75;;;;;;;28.47;47.35;100509.63;4992905;28;20096;-78
2022/07/08 09:21:03;;;;;;;14.60;5.15;;;;;;;28.43;46.89;100495.41;4993179;28;20026;-78
2022/07/08 09:23:47;;;;;;;14.20;4.40;;;;;;;28.44;46.76;100496.28;4993206;28;20439;-77
2022/07/08 09:26:12;;;;;;;24.60;10.35;;;;;;;28.42;47.12;100481.81;4992832;28;20022;-78
2022/07/08 09:28:43;;;;;;;16.48;2.78;;;;;;;28.60;46.71;100487.16;4992589;28;20898;-78
2022/07/08 09:31:14;;;;;;;12.07;2.42;;;;;;;28.67;46.60;100487.91;4991945;28;20125;-78
2022/07/08 09:33:40;;;;;;;4.88;2.35;;;;;;;28.74;46.75;100480.31;5007367;28;20030;-78
2022/07/08 09:36:08;;;;;;;4.40;2.40;;;;;;;28.89;46.97;100486.13;4993023;28;20030;-78
2022/07/08 09:38:36;;;;;;;9.73;2.17;;;;;;;28.97;45.56;100482.97;4992165;28;20484;-77
2022/07/08 09:41:04;;;;;;;12.18;3.40;;;;;;;28.96;45.28;100484.03;4992200;28;20101;-77
2022/07/08 09:43:31;;;;;;;4.63;2.03;;;;;;;29.00;45.12;100484.38;4991257;28;20044;-78
2022/07/08 09:46:05;;;;;;;5.93;1.88;;;;;;;28.96;45.52;100477.69;4992485;28;20041;-76
2022/07/08 09:48:30;;;;;;;11.00;2.40;;;;;;;29.02;45.57;100471.97;4992367;28;20026;-77
2022/07/08 09:50:59;;;;;;;11.02;3.53;;;;;;;29.07;45.87;100471.22;4990756;28;20026;-77
2022/07/08 09:53:27;;;;;;;20.30;3.28;;;;;;;29.14;46.00;100458.88;4992185;28;20120;-77
2022/07/08 09:55:54;;;;;;;6.65;2.92;;;;;;;29.17;45.55;100463.91;4992191;28;20022;-77
2022/07/08 09:58:22;;;;;;;4.55;3.03;;;;;;;29.27;45.73;100451.38;4992056;28;20026;-78
2022/07/08 10:00:49;;;;;;;9.52;2.58;;;;;;;29.50;46.03;100463.13;4991845;28;20109;-77
2022/07/08 10:03:16;;;;;;;11.05;2.53;;;;;;;29.64;45.47;100475.56;4991521;28;20041;-77
2022/07/08 10:05:43;;;;;;;12.50;2.60;;;;;;;29.64;45.11;100458.91;4991936;28;20057;-77
2022/07/08 10:08:10;;;;;;;12.43;3.17;;;;;;;29.75;45.23;100464.63;4991617;28;20093;-77
2022/07/08 10:10:38;;;;;;;16.13;3.22;;;;;;;29.67;45.44;100463.13;4991564;28;20050;-77
2022/07/08 10:13:04;;;;;;;20.80;2.97;;;;;;;29.83;44.66;100467.00;4991575;28;20030;-77
2022/07/08 10:15:34;;;;;;;20.50;7.53;;;;;;;29.97;44.71;100465.53;4991329;28;20041;-78
2022/07/08 10:18:22;;;;;;;9.23;2.28;;;;;;;29.92;44.01;100462.69;4991525;28;20065;-76
2022/07/08 10:20:53;;;;;;;10.73;3.15;;;;;;;30.00;43.84;100474.19;4991485;28;20084;-77
2022/07/08 10:23:42;;;;;;;9.63;2.65;;;;;;;30.11;43.57;100464.91;4990008;28;20045;-78
2022/07/08 10:26:10;;;;;;;8.10;2.47;;;;;;;30.29;43.26;100476.78;4991267;28;20663;-78
2022/07/08 10:28:41;;;;;;;8.52;2.58;;;;;;;30.44;42.31;100468.69;4991290;28;20104;-77
2022/07/08 10:31:24;;;;;;;4.80;3.00;;;;;;;30.58;41.42;100470.00;4991638;28;20507;-77
2022/07/08 10:33:53;;;;;;;4.65;2.53;;;;;;;30.75;40.77;100459.63;4991451;28;20412;-78
2022/07/08 10:36:22;;;;;;;4.97;2.75;;;;;;;30.97;40.85;100471.56;4991533;28;20069;-77
2022/07/08 10:38:49;;;;;;;6.22;2.65;;;;;;;31.08;40.61;100481.66;4991398;28;20038;-77
2022/07/08 10:41:23;;;;;;;10.80;2.90;;;;;;;31.23;40.90;100479.03;4991509;28;20030;-77
2022/07/08 10:43:53;;;;;;;8.30;2.05;;;;;;;30.74;40.93;100407.94;4991478;28;20568;-77
2022/07/08 10:46:20;;;;;;;8.13;2.67;;;;;;;31.30;41.22;100473.25;4991251;28;20049;-77
2022/07/08 10:49:12;;;;;;;2.63;2.40;;;;;;;31.45;40.25;100481.72;4991622;28;20085;-77
2022/07/08 10:51:45;;;;;;;10.90;3.47;;;;;;;31.44;40.56;100468.06;4991479;28;20041;-77
2022/07/08 10:54:24;;;;;;;11.50;2.85;;;;;;;31.55;40.60;100475.44;4991320;28;20074;-78
2022/07/08 10:56:49;;;;;;;4.85;2.53;;;;;;;31.78;40.44;100477.81;4991274;28;20040;-77
2022/07/08 10:59:26;;;;;;;9.40;2.55;;;;;;;31.83;39.11;100456.44;4991600;28;20035;-78
2022/07/08 11:01:53;;;;;;;4.85;2.20;;;;;;;31.93;39.24;100472.34;4994306;28;20161;-77
2022/07/08 11:04:34;;;;;;;9.68;2.10;;;;;;;31.98;38.29;100454.88;4995173;28;20041;-77
2022/07/08 11:07:15;;;;;;;4.22;2.63;;;;;;;31.92;38.64;100459.56;4993784;28;20399;-78
2022/07/08 11:09:42;;;;;;;11.52;2.45;;;;;;;31.76;38.21;100455.00;5001999;28;20029;-78
2022/07/08 11:12:15;;;;;;;23.65;3.65;;;;;;;31.84;38.51;100440.59;5031675;28;20022;-78
2022/07/08 11:14:45;;;;;;;7.65;2.38;;;;;;;31.70;41.02;100456.09;5015476;28;20025;-77
2022/07/08 11:17:18;;;;;;;6.22;2.75;;;;;;;31.22;41.60;100455.09;5015051;28;20048;-76
2022/07/08 11:19:45;;;;;;;16.52;3.40;;;;;;;31.25;41.67;100451.78;5015329;28;20026;-77
2022/07/08 11:22:11;;;;;;;4.53;2.22;;;;;;;30.97;43.28;100451.28;5014252;28;20032;-77